Time;durP1;ratioP1;P1;durP2;ratioP2;P2;SDS_P1;SDS_P2;PMS_P1;PMS_P2;Temp;Humidity;BMP_temperature;BMP_pressure;BME280_temperature;BME280_humidity;BME280_pressure;Samples;Min_cycle;Max_cycle;Signal;HPM_P1;HPM_P2
2022/07/23 00:00:43;;;;;;;1.50;1.30;;;16.90;99.90;;;;;;4874192;29;39092;-84
2022/07/23 00:03:09;;;;;;;2.35;1.45;;;16.90;99.90;;;;;;4856383;29;38179;-85
2022/07/23 00:05:35;;;;;;;2.58;1.48;;;16.90;99.90;;;;;;4857587;29;37437;-84
2022/07/23 00:08:02;;;;;;;2.10;1.20;;;16.90;99.90;;;;;;4857232;29;37699;-85
2022/07/23 00:10:28;;;;;;;2.17;1.45;;;16.80;99.90;;;;;;4858272;29;46945;-84
2022/07/23 00:12:54;;;;;;;2.65;1.20;;;16.70;99.90;;;;;;4858419;29;38573;-85
2022/07/23 00:15:20;;;;;;;3.35;1.52;;;16.70;99.90;;;;;;4855606;29;38501;-85
2022/07/23 00:17:46;;;;;;;3.63;1.30;;;16.70;99.90;;;;;;4857241;29;35922;-83
2022/07/23 00:20:12;;;;;;;2.10;1.20;;;16.60;99.90;;;;;;4873725;29;38316;-85
2022/07/23 00:22:52;;;;;;;2.78;1.98;;;16.60;99.90;;;;;;4856711;29;37967;-85
2022/07/23 00:25:22;;;;;;;4.45;1.30;;;16.60;99.90;;;;;;4856784;29;38145;-85
2022/07/23 00:27:48;;;;;;;2.92;1.45;;;16.60;99.90;;;;;;4855863;29;37265;-85
2022/07/23 00:30:15;;;;;;;2.58;1.38;;;16.60;99.90;;;;;;4872415;29;38783;-85
2022/07/23 00:32:52;;;;;;;3.33;1.63;;;16.60;99.90;;;;;;4856515;29;38740;-85
2022/07/23 00:35:22;;;;;;;2.80;1.30;;;16.60;99.90;;;;;;4871954;29;38248;-85
2022/07/23 00:37:48;;;;;;;4.45;1.55;;;16.60;99.90;;;;;;4857725;29;36149;-86
2022/07/23 00:40:15;;;;;;;2.20;1.50;;;16.70;99.90;;;;;;4873816;29;38694;-85
2022/07/23 00:42:41;;;;;;;2.70;1.50;;;16.70;99.90;;;;;;4873595;29;38539;-85
2022/07/23 00:45:08;;;;;;;4.30;1.58;;;16.70;99.90;;;;;;4855872;29;37279;-85
2022/07/23 00:47:34;;;;;;;3.38;1.45;;;16.70;99.90;;;;;;4856137;29;37499;-85
2022/07/23 00:50:02;;;;;;;2.58;1.30;;;16.70;99.90;;;;;;4872431;29;39912;-85
2022/07/23 00:52:29;;;;;;;2.35;1.52;;;16.60;99.90;;;;;;4857896;29;38353;-85
2022/07/23 00:54:55;;;;;;;3.53;1.50;;;16.60;99.90;;;;;;4857235;29;38274;-85
2022/07/23 00:57:21;;;;;;;4.03;1.25;;;16.60;99.90;;;;;;4850445;29;36318;-85
2022/07/23 00:59:47;;;;;;;6.07;1.33;;;16.50;99.90;;;;;;4857199;29;38501;-85
2022/07/23 01:02:13;;;;;;;2.47;1.70;;;16.50;99.90;;;;;;4855849;29;38452;-84
2022/07/23 01:04:40;;;;;;;2.20;1.40;;;16.50;99.90;;;;;;4856158;29;36773;-84
2022/07/23 01:07:07;;;;;;;2.17;1.60;;;16.50;99.90;;;;;;4856846;29;37458;-85
2022/07/23 01:09:33;;;;;;;3.83;1.88;;;16.40;99.90;;;;;;4858104;29;37552;-85
2022/07/23 01:11:59;;;;;;;1.92;1.50;;;16.40;99.90;;;;;;4856887;29;37272;-85
2022/07/23 01:14:26;;;;;;;3.28;1.80;;;16.40;99.90;;;;;;4858532;29;37118;-84
2022/07/23 01:16:52;;;;;;;4.57;2.38;;;16.30;99.90;;;;;;4872677;29;38001;-87
2022/07/23 01:19:18;;;;;;;2.55;1.73;;;16.30;99.90;;;;;;4857677;29;38411;-85
2022/07/23 01:21:49;;;;;;;4.53;2.10;;;16.30;99.90;;;;;;4858085;29;37030;-87
2022/07/23 01:24:19;;;;;;;3.25;1.60;;;16.30;99.90;;;;;;4856831;29;37082;-85
2022/07/23 01:26:47;;;;;;;2.63;1.67;;;16.30;99.90;;;;;;4856173;29;37488;-86
2022/07/23 01:29:13;;;;;;;3.45;1.70;;;16.20;99.90;;;;;;4845134;29;41331;-87
2022/07/23 01:31:40;;;;;;;4.63;1.80;;;16.30;99.90;;;;;;4856895;29;38157;-85
2022/07/23 01:34:07;;;;;;;3.58;1.92;;;16.20;99.90;;;;;;4874577;29;38734;-85
2022/07/23 01:36:34;;;;;;;5.13;2.25;;;16.10;99.90;;;;;;4856357;29;36977;-85
2022/07/23 01:39:00;;;;;;;3.85;1.88;;;16.10;99.90;;;;;;4855408;29;38046;-85
2022/07/23 01:41:26;;;;;;;3.92;1.88;;;16.10;99.90;;;;;;4856098;29;36847;-87
2022/07/23 01:43:52;;;;;;;2.00;1.80;;;16.00;99.90;;;;;;4857820;29;37972;-87
2022/07/23 01:46:19;;;;;;;3.03;2.10;;;16.00;99.90;;;;;;4855415;29;36763;-87
2022/07/23 01:48:45;;;;;;;2.40;1.83;;;16.00;99.90;;;;;;4855708;29;38080;-87
2022/07/23 01:51:11;;;;;;;4.60;2.03;;;16.00;99.90;;;;;;4856171;29;37175;-86
2022/07/23 01:53:37;;;;;;;2.35;2.00;;;16.00;99.90;;;;;;4856518;29;38287;-85
2022/07/23 01:56:04;;;;;;;4.28;2.15;;;15.90;99.90;;;;;;4854891;29;37507;-84
2022/07/23 01:58:30;;;;;;;4.38;2.22;;;15.90;99.90;;;;;;4874706;29;40181;-85
2022/07/23 02:00:56;;;;;;;3.70;2.00;;;15.90;99.90;;;;;;4873170;29;39245;-85
2022/07/23 02:03:22;;;;;;;2.47;1.95;;;15.90;99.90;;;;;;4871639;29;38341;-84
2022/07/23 02:05:49;;;;;;;2.83;1.90;;;15.90;99.90;;;;;;4857144;29;36281;-86
2022/07/23 02:08:15;;;;;;;8.70;2.50;;;15.90;99.90;;;;;;4857250;29;39181;-86
2022/07/23 02:10:42;;;;;;;3.45;2.42;;;15.80;99.90;;;;;;4856716;29;37324;-86
2022/07/23 02:13:08;;;;;;;3.20;2.38;;;15.80;99.90;;;;;;4872346;29;38243;-86
2022/07/23 02:15:34;;;;;;;4.95;2.92;;;15.80;99.90;;;;;;4856620;29;36386;-86
2022/07/23 02:18:00;;;;;;;4.47;2.53;;;15.70;99.90;;;;;;4856819;29;37293;-85
2022/07/23 02:20:26;;;;;;;2.95;2.08;;;15.70;99.90;;;;;;4870082;29;38804;-86
2022/07/23 02:22:52;;;;;;;3.35;2.00;;;15.70;99.90;;;;;;4873630;29;38862;-86
2022/07/23 02:25:18;;;;;;;3.75;2.35;;;15.60;99.90;;;;;;4856355;29;36037;-85
2022/07/23 02:27:45;;;;;;;2.85;1.95;;;15.60;99.90;;;;;;4853870;29;38837;-85
2022/07/23 02:30:11;;;;;;;3.40;2.03;;;15.60;99.90;;;;;;4869522;29;38643;-86
2022/07/23 02:32:39;;;;;;;2.97;1.83;;;15.60;99.90;;;;;;4853706;29;37138;-86
2022/07/23 02:35:05;;;;;;;1.92;1.70;;;15.50;99.90;;;;;;4854274;29;36203;-86
2022/07/23 02:37:32;;;;;;;2.33;1.70;;;15.50;99.90;;;;;;4872808;29;39385;-87
2022/07/23 02:39:58;;;;;;;5.20;2.10;;;15.40;99.90;;;;;;4856741;29;37280;-86
2022/07/23 02:42:25;;;;;;;3.10;2.35;;;15.30;99.90;;;;;;4853879;29;36852;-87
2022/07/23 02:44:52;;;;;;;3.25;2.05;;;15.30;99.90;;;;;;4854043;29;36374;-86
2022/07/23 02:47:18;;;;;;;3.65;2.20;;;15.30;99.90;;;;;;4873140;29;38760;-86
2022/07/23 02:49:44;;;;;;;6.70;2.30;;;15.20;99.90;;;;;;4873079;29;39267;-86
2022/07/23 02:52:10;;;;;;;4.28;1.77;;;15.20;99.90;;;;;;4854696;29;36828;-86
2022/07/23 02:54:37;;;;;;;4.22;2.15;;;15.10;99.90;;;;;;4855602;29;36675;-86
2022/07/23 02:57:04;;;;;;;3.65;1.83;;;15.10;99.90;;;;;;4871683;29;38599;-86
2022/07/23 02:59:30;;;;;;;4.18;2.30;;;15.00;99.90;;;;;;4873948;29;38678;-87
2022/07/23 03:01:56;;;;;;;3.42;2.40;;;15.00;99.90;;;;;;4874884;29;38144;-86
2022/07/23 03:04:22;;;;;;;2.55;2.28;;;15.00;99.90;;;;;;4872397;29;36823;-87
2022/07/23 03:06:48;;;;;;;4.57;2.00;;;15.00;99.90;;;;;;4860163;29;38432;-86
2022/07/23 03:09:14;;;;;;;3.97;2.05;;;15.00;99.90;;;;;;4859381;29;37255;-86
2022/07/23 03:11:41;;;;;;;2.55;1.88;;;15.00;99.90;;;;;;4858285;29;37763;-87
2022/07/23 03:14:07;;;;;;;3.75;2.00;;;15.00;99.90;;;;;;4856130;29;36373;-87
2022/07/23 03:16:33;;;;;;;3.00;1.98;;;15.00;99.90;;;;;;4858714;29;39007;-87
2022/07/23 03:18:59;;;;;;;3.35;2.13;;;15.00;99.90;;;;;;4876771;29;38483;-87
2022/07/23 03:21:25;;;;;;;3.47;1.83;;;15.00;99.90;;;;;;4857958;29;37639;-87
2022/07/23 03:23:51;;;;;;;3.20;2.40;;;14.90;99.90;;;;;;4859225;29;37259;-87
2022/07/23 03:26:17;;;;;;;4.05;2.20;;;14.90;99.90;;;;;;4875636;29;39995;-87
2022/07/23 03:28:43;;;;;;;2.80;2.10;;;14.90;99.90;;;;;;4859424;29;38782;-87
2022/07/23 03:31:09;;;;;;;4.15;2.40;;;14.80;99.90;;;;;;4856663;29;36905;-87
2022/07/23 03:33:36;;;;;;;3.83;2.17;;;14.80;99.90;;;;;;4876420;29;37210;-84
2022/07/23 03:36:02;;;;;;;2.22;1.80;;;14.80;99.90;;;;;;4854799;29;38037;-86
2022/07/23 03:38:28;;;;;;;2.17;1.92;;;14.80;99.90;;;;;;4856070;29;37385;-86
2022/07/23 03:40:54;;;;;;;3.65;2.47;;;14.70;99.90;;;;;;4858822;29;37825;-88
2022/07/23 03:43:20;;;;;;;3.55;2.58;;;14.70;99.90;;;;;;4875909;29;37698;-88
2022/07/23 03:45:46;;;;;;;3.00;1.92;;;14.80;99.90;;;;;;4861378;29;39199;-86
2022/07/23 03:48:12;;;;;;;3.55;2.28;;;14.80;99.90;;;;;;4858957;29;37560;-88
2022/07/23 03:50:38;;;;;;;3.83;2.50;;;14.80;99.90;;;;;;4858548;29;36801;-84
2022/07/23 03:53:04;;;;;;;3.45;2.22;;;14.80;99.90;;;;;;4857491;29;35820;-87
2022/07/23 03:55:30;;;;;;;1.80;1.70;;;14.90;99.90;;;;;;4858297;29;37855;-88
2022/07/23 03:57:56;;;;;;;2.83;1.70;;;14.90;99.90;;;;;;4872955;29;39529;-87
2022/07/23 04:00:22;;;;;;;2.33;1.90;;;15.00;99.90;;;;;;4858098;29;37175;-87
2022/07/23 04:02:49;;;;;;;2.65;1.95;;;15.00;99.90;;;;;;4858872;29;36286;-87
2022/07/23 04:05:15;;;;;;;3.35;2.10;;;15.00;99.90;;;;;;4858238;29;37825;-87
2022/07/23 04:07:41;;;;;;;2.97;2.00;;;15.10;99.90;;;;;;4874378;29;38168;-85
2022/07/23 04:10:07;;;;;;;2.22;1.95;;;15.20;99.90;;;;;;4856308;29;37862;-87
2022/07/23 04:12:33;;;;;;;3.22;1.90;;;15.20;99.90;;;;;;4873809;29;37250;-84
2022/07/23 04:14:59;;;;;;;3.38;2.28;;;15.20;99.90;;;;;;4856386;29;37585;-86
2022/07/23 04:17:26;;;;;;;4.10;2.28;;;15.30;99.90;;;;;;4855198;29;37484;-86
2022/07/23 04:19:52;;;;;;;2.22;2.03;;;15.30;99.90;;;;;;4861464;29;37988;-86
2022/07/23 04:22:18;;;;;;;1.92;1.75;;;15.30;99.90;;;;;;4859531;29;37269;-86
2022/07/23 04:24:44;;;;;;;2.83;1.83;;;15.30;99.90;;;;;;4855654;29;39461;-86
2022/07/23 04:27:10;;;;;;;4.40;2.28;;;15.40;99.90;;;;;;4855857;29;37540;-86
2022/07/23 04:29:36;;;;;;;1.75;1.65;;;15.40;99.90;;;;;;4856324;29;37297;-84
2022/07/23 04:32:03;;;;;;;3.08;2.25;;;15.40;99.90;;;;;;4858072;29;36081;-86
2022/07/23 04:34:29;;;;;;;2.47;2.10;;;15.40;99.90;;;;;;4875482;29;38428;-85
2022/07/23 04:36:55;;;;;;;2.90;1.73;;;15.40;99.90;;;;;;4873784;29;38445;-86
2022/07/23 04:39:21;;;;;;;2.72;2.10;;;15.40;99.90;;;;;;4852609;29;36986;-86
2022/07/23 04:41:47;;;;;;;4.28;2.40;;;15.40;99.90;;;;;;4856969;29;36108;-86
2022/07/23 04:44:13;;;;;;;2.60;2.35;;;15.30;99.90;;;;;;4858130;29;38104;-85
2022/07/23 04:46:40;;;;;;;2.30;2.00;;;15.30;99.90;;;;;;4874949;29;38411;-85
2022/07/23 04:49:06;;;;;;;2.65;2.00;;;15.30;99.90;;;;;;4856505;29;37035;-88
2022/07/23 04:51:32;;;;;;;2.20;1.80;;;15.20;99.90;;;;;;4858357;29;37734;-87
2022/07/23 04:53:58;;;;;;;2.40;2.20;;;15.40;99.90;;;;;;4872456;29;38705;-87
2022/07/23 04:56:24;;;;;;;4.80;2.50;;;15.40;99.90;;;;;;4855047;29;37153;-86
2022/07/23 04:58:50;;;;;;;3.00;2.30;;;15.40;99.90;;;;;;4857836;29;36982;-86
2022/07/23 05:01:16;;;;;;;2.35;2.15;;;15.40;99.90;;;;;;4857682;29;36221;-86
2022/07/23 05:03:42;;;;;;;2.28;2.00;;;15.50;99.90;;;;;;4856254;29;37493;-86
2022/07/23 05:06:08;;;;;;;4.43;2.58;;;15.60;99.90;;;;;;4872976;29;38534;-87
2022/07/23 05:08:34;;;;;;;4.32;2.08;;;15.70;99.90;;;;;;4858039;29;37305;-86
2022/07/23 05:11:00;;;;;;;5.70;2.88;;;15.70;99.90;;;;;;4873770;29;38176;-86
2022/07/23 05:13:26;;;;;;;3.95;2.40;;;15.80;99.90;;;;;;4852549;29;38760;-86
2022/07/23 05:15:52;;;;;;;4.72;2.45;;;15.80;99.90;;;;;;4874668;29;38549;-86
2022/07/23 05:18:19;;;;;;;4.13;3.00;;;15.80;99.90;;;;;;4856439;29;36942;-86
2022/07/23 05:20:45;;;;;;;6.30;2.65;;;15.90;99.90;;;;;;4874723;29;37742;-86
2022/07/23 05:23:11;;;;;;;3.10;2.80;;;15.90;99.90;;;;;;4852179;29;38804;-85
2022/07/23 05:25:37;;;;;;;2.78;2.40;;;16.00;99.90;;;;;;4873603;29;38718;-85
2022/07/23 05:28:03;;;;;;;3.25;2.90;;;16.00;99.90;;;;;;4858563;29;37668;-86
2022/07/23 05:30:29;;;;;;;3.38;2.13;;;16.10;99.90;;;;;;4874030;29;37102;-86
2022/07/23 05:32:55;;;;;;;3.28;2.75;;;16.30;99.90;;;;;;4873875;29;39016;-86
2022/07/23 05:35:21;;;;;;;4.65;3.10;;;16.40;99.90;;;;;;4857221;29;38034;-85
2022/07/23 05:37:47;;;;;;;4.63;2.40;;;16.70;99.90;;;;;;4837936;29;37012;-85
2022/07/23 05:40:14;;;;;;;5.28;2.20;;;17.10;99.90;;;;;;4856636;29;36244;-85
2022/07/23 05:42:41;;;;;;;4.70;2.38;;;17.40;99.90;;;;;;4857666;29;39430;-85
2022/07/23 05:45:08;;;;;;;2.72;2.22;;;17.60;99.90;;;;;;4873583;29;38812;-84
2022/07/23 05:47:42;;;;;;;2.30;1.95;;;17.70;99.90;;;;;;4855879;29;37888;-85
2022/07/23 05:50:08;;;;;;;3.88;1.98;;;17.70;99.90;;;;;;4855655;29;36193;-84
2022/07/23 05:52:34;;;;;;;2.70;2.00;;;18.00;99.90;;;;;;4856833;29;37787;-84
2022/07/23 05:55:00;;;;;;;4.32;2.00;;;18.20;99.90;;;;;;4875012;29;39519;-83
2022/07/23 05:57:26;;;;;;;2.53;1.30;;;18.20;99.90;;;;;;4874581;29;38499;-83
2022/07/23 05:59:52;;;;;;;2.65;1.55;;;18.40;99.90;;;;;;4856954;29;36256;-82
2022/07/23 06:02:18;;;;;;;2.03;1.33;;;18.60;99.90;;;;;;4863953;29;37510;-82
2022/07/23 06:04:45;;;;;;;3.92;1.85;;;18.80;99.90;;;;;;4872489;29;39132;-83
2022/07/23 06:07:12;;;;;;;3.30;1.63;;;18.90;99.90;;;;;;4856795;29;37352;-82
2022/07/23 06:09:38;;;;;;;5.30;1.92;;;19.00;99.90;;;;;;4856919;29;37122;-83
2022/07/23 06:12:04;;;;;;;5.20;1.73;;;18.90;99.90;;;;;;4863403;29;38394;-82
2022/07/23 06:14:30;;;;;;;2.85;1.35;;;18.60;99.90;;;;;;4861450;29;38135;-82
2022/07/23 06:16:56;;;;;;;4.90;1.42;;;18.30;99.90;;;;;;4856797;29;38586;-82
2022/07/23 06:19:22;;;;;;;3.03;1.17;;;18.10;99.90;;;;;;4855954;29;36557;-83
2022/07/23 06:21:48;;;;;;;1.60;1.00;;;18.00;99.90;;;;;;4856837;29;38529;-83
2022/07/23 06:24:15;;;;;;;1.67;1.27;;;18.00;99.90;;;;;;4853338;29;37405;-83
2022/07/23 06:26:41;;;;;;;1.98;1.10;;;17.90;99.90;;;;;;4854934;29;38466;-84
2022/07/23 06:29:07;;;;;;;3.88;1.33;;;17.90;99.90;;;;;;4856269;29;36071;-83
2022/07/23 06:31:33;;;;;;;3.05;1.20;;;17.80;99.90;;;;;;4856716;29;38827;-82
2022/07/23 06:33:59;;;;;;;2.90;1.15;;;17.90;99.90;;;;;;4855744;29;37846;-83
2022/07/23 06:36:25;;;;;;;3.30;0.90;;;18.00;99.90;;;;;;4859677;29;38585;-83
2022/07/23 06:38:51;;;;;;;2.17;1.23;;;18.50;99.90;;;;;;4857189;29;36202;-83
2022/07/23 06:41:17;;;;;;;3.00;1.10;;;18.70;99.90;;;;;;4859920;29;37786;-82
2022/07/23 06:43:43;;;;;;;2.92;1.48;;;18.60;99.90;;;;;;4855714;29;37325;-83
2022/07/23 06:46:09;;;;;;;2.45;1.25;;;18.50;99.90;;;;;;4855414;29;36893;-83
2022/07/23 06:48:35;;;;;;;5.90;1.40;;;18.70;99.90;;;;;;4870968;29;38314;-81
2022/07/23 06:51:03;;;;;;;4.85;1.67;;;19.20;99.90;;;;;;4854995;29;37813;-81
2022/07/23 06:53:29;;;;;;;1.10;0.80;;;19.50;99.90;;;;;;4857067;29;37324;-82
2022/07/23 06:55:55;;;;;;;4.53;1.17;;;19.90;99.90;;;;;;4855622;29;37052;-82
2022/07/23 06:58:21;;;;;;;2.05;0.93;;;20.30;99.90;;;;;;4850833;29;36041;-81
2022/07/23 07:00:47;;;;;;;1.90;0.93;;;20.50;99.90;;;;;;4854531;29;37588;-82
2022/07/23 07:03:13;;;;;;;2.55;1.00;;;20.50;99.90;;;;;;4848653;29;37416;-82
2022/07/23 07:05:40;;;;;;;3.30;0.98;;;20.30;99.90;;;;;;4854898;29;38059;-82
2022/07/23 07:08:06;;;;;;;1.92;0.70;;;20.40;99.90;;;;;;4852632;29;36408;-82
2022/07/23 07:10:32;;;;;;;3.33;1.10;;;20.40;99.90;;;;;;4855832;29;37759;-81
2022/07/23 07:12:58;;;;;;;3.67;1.10;;;20.70;99.90;;;;;;4856412;29;37749;-81
2022/07/23 07:15:25;;;;;;;2.35;1.10;;;20.50;99.90;;;;;;4864654;29;39140;-82
2022/07/23 07:17:51;;;;;;;1.63;0.80;;;20.60;99.90;;;;;;4851883;29;37024;-82
2022/07/23 07:20:17;;;;;;;1.58;0.90;;;20.50;99.90;;;;;;4856230;29;37980;-82
2022/07/23 07:22:43;;;;;;;4.45;1.08;;;20.60;99.90;;;;;;4855616;29;37345;-81
2022/07/23 07:25:09;;;;;;;3.13;1.20;;;20.80;99.90;;;;;;4856287;29;38299;-84
2022/07/23 07:27:35;;;;;;;2.55;1.25;;;21.00;99.90;;;;;;4871576;29;37711;-84
2022/07/23 07:30:06;;;;;;;3.28;1.23;;;21.30;99.90;;;;;;4871997;29;38995;-84
2022/07/23 07:32:33;;;;;;;;;;;21.50;99.90;;;;;;4860766;29;20037;-84
2022/07/23 07:34:59;;;;;;;3.90;1.45;;;21.30;99.90;;;;;;4855768;29;37770;-84
2022/07/23 07:37:25;;;;;;;1.95;1.40;;;21.40;99.90;;;;;;4853311;29;35841;-84
2022/07/23 07:39:51;;;;;;;2.35;1.27;;;21.70;99.90;;;;;;4855856;29;38849;-84
2022/07/23 07:42:17;;;;;;;2.63;0.93;;;21.80;99.90;;;;;;4852613;29;37719;-84
2022/07/23 07:44:43;;;;;;;2.10;1.10;;;22.00;99.90;;;;;;4867650;29;38362;-84
2022/07/23 07:47:10;;;;;;;2.25;1.00;;;22.20;99.90;;;;;;4853557;29;36564;-84
2022/07/23 07:49:36;;;;;;;3.80;1.10;;;22.40;99.90;;;;;;4875178;29;39701;-84
2022/07/23 07:52:03;;;;;;;2.33;1.15;;;22.30;99.90;;;;;;4857439;29;37688;-84
2022/07/23 07:54:29;;;;;;;1.80;1.17;;;22.40;99.90;;;;;;4856984;29;38282;-84
2022/07/23 07:56:55;;;;;;;2.72;1.02;;;22.60;99.90;;;;;;4857647;29;37351;-84
2022/07/23 07:59:21;;;;;;;1.73;1.27;;;22.70;99.90;;;;;;4874334;29;39418;-85
2022/07/23 08:01:47;;;;;;;2.25;1.02;;;22.60;99.90;;;;;;4859327;29;38345;-83
2022/07/23 08:04:13;;;;;;;5.30;1.30;;;22.60;99.90;;;;;;4871492;29;38651;-84
2022/07/23 08:06:39;;;;;;;1.50;1.00;;;21.80;99.90;;;;;;4874899;29;36771;-84
2022/07/23 08:09:05;;;;;;;2.83;1.15;;;21.70;99.90;;;;;;4875291;29;38913;-84
2022/07/23 08:11:31;;;;;;;2.75;0.90;;;22.20;99.90;;;;;;4857328;29;38423;-84
2022/07/23 08:13:57;;;;;;;3.35;1.02;;;22.40;99.90;;;;;;4856020;29;38509;-84
2022/07/23 08:16:24;;;;;;;2.70;1.67;;;22.70;99.90;;;;;;4856790;29;37561;-84
2022/07/23 08:18:50;;;;;;;1.45;1.05;;;22.90;99.90;;;;;;4857783;29;38519;-84
2022/07/23 08:21:16;;;;;;;1.90;0.90;;;23.10;99.90;;;;;;4857020;29;37503;-84
2022/07/23 08:23:42;;;;;;;4.07;1.10;;;23.20;99.90;;;;;;4875218;29;38112;-85
2022/07/23 08:26:08;;;;;;;4.07;0.88;;;23.00;99.90;;;;;;4873526;29;37085;-84
2022/07/23 08:28:34;;;;;;;2.80;1.10;;;23.20;99.90;;;;;;4857714;29;38461;-84
2022/07/23 08:31:01;;;;;;;3.47;1.25;;;22.70;99.90;;;;;;4858200;29;38593;-85
2022/07/23 08:33:28;;;;;;;1.88;1.20;;;22.90;99.90;;;;;;4857413;29;47259;-83
2022/07/23 08:35:54;;;;;;;2.60;1.23;;;22.70;99.90;;;;;;4858875;29;36491;-82
2022/07/23 08:38:21;;;;;;;3.15;1.00;;;23.30;99.90;;;;;;4872448;29;39675;-81
2022/07/23 08:40:49;;;;;;;2.72;1.20;;;23.50;99.90;;;;;;4874225;29;38618;-77
2022/07/23 08:43:22;;;;;;;4.10;1.33;;;23.40;99.90;;;;;;4872367;29;38849;-82
2022/07/23 08:45:50;;;;;;;3.13;0.90;;;23.40;99.90;;;;;;4858079;29;37433;-83
2022/07/23 08:48:24;;;;;;;2.15;1.27;;;23.70;99.90;;;;;;4856756;29;39298;-84
2022/07/23 08:50:53;;;;;;;2.88;1.20;;;23.50;99.90;;;;;;4858365;29;37564;-83
2022/07/23 08:53:21;;;;;;;2.35;1.23;;;23.60;99.90;;;;;;4873034;29;39030;-83
2022/07/23 08:55:49;;;;;;;3.22;1.20;;;23.30;99.90;;;;;;4855862;29;37166;-83
2022/07/23 08:58:16;;;;;;;4.80;1.25;;;22.50;99.90;;;;;;4856667;29;37547;-82
2022/07/23 09:00:42;;;;;;;3.28;1.10;;;22.50;99.90;;;;;;4856998;29;37546;-83
2022/07/23 09:03:16;;;;;;;2.70;1.08;;;22.80;99.90;;;;;;4854250;29;37046;-82
2022/07/23 09:05:42;;;;;;;4.68;1.30;;;23.20;99.90;;;;;;4857610;29;37999;-83
2022/07/23 09:08:14;;;;;;;2.20;1.20;;;22.30;99.90;;;;;;4873582;29;38812;-83
2022/07/23 09:10:44;;;;;;;5.10;1.40;;;22.50;99.90;;;;;;4858137;29;38394;-82
2022/07/23 09:13:42;;;;;;;2.75;1.17;;;22.90;99.90;;;;;;4856199;29;38289;-82
2022/07/23 09:16:11;;;;;;;4.82;1.38;;;23.20;99.90;;;;;;4873677;29;37553;-82
2022/07/23 09:18:46;;;;;;;3.25;1.55;;;23.90;99.90;;;;;;4855986;29;37833;-82
2022/07/23 09:21:18;;;;;;;2.38;1.30;;;24.40;99.90;;;;;;4873344;29;38696;-82
2022/07/23 09:23:55;;;;;;;1.77;1.10;;;23.70;99.90;;;;;;4857257;29;37700;-82
2022/07/23 09:26:34;;;;;;;2.25;1.20;;;23.80;99.90;;;;;;4857955;29;36374;-83
2022/07/23 09:29:11;;;;;;;1.58;0.93;;;23.20;99.90;;;;;;4856424;29;38328;-82
2022/07/23 09:31:48;;;;;;;2.60;1.20;;;23.80;99.90;;;;;;4852297;29;47168;-82
2022/07/23 09:34:21;;;;;;;2.47;1.05;;;24.30;99.90;;;;;;4874915;29;38036;-83
2022/07/23 09:36:49;;;;;;;2.08;0.90;;;24.40;99.90;;;;;;4874659;29;37986;-82
2022/07/23 09:39:29;;;;;;;4.55;1.30;;;24.50;99.90;;;;;;4873009;29;40078;-82
2022/07/23 09:41:56;;;;;;;1.88;1.10;;;24.40;99.90;;;;;;4855815;29;37824;-83
2022/07/23 09:44:23;;;;;;;3.00;1.25;;;24.30;99.90;;;;;;4873386;29;37929;-81
2022/07/23 09:46:50;;;;;;;3.95;1.17;;;24.50;99.90;;;;;;4857562;29;36505;-82
2022/07/23 09:49:22;;;;;;;1.30;1.02;;;24.60;99.90;;;;;;4871285;29;38384;-83
2022/07/23 09:51:57;;;;;;;3.60;1.00;;;23.40;99.90;;;;;;4873819;29;39378;-82
2022/07/23 09:54:40;;;;;;;2.40;1.15;;;23.10;99.90;;;;;;4848199;29;38250;-82
2022/07/23 09:57:15;;;;;;;1.85;0.85;;;23.60;99.90;;;;;;4853780;29;36429;-82
2022/07/23 09:59:42;;;;;;;3.33;1.27;;;23.50;99.90;;;;;;4853239;29;38108;-82
2022/07/23 10:02:11;;;;;;;1.50;0.90;;;24.00;99.90;;;;;;4873758;29;38925;-82
2022/07/23 10:04:38;;;;;;;1.75;1.00;;;24.40;99.90;;;;;;4857183;29;38431;-82
2022/07/23 10:07:07;;;;;;;1.73;0.82;;;24.20;99.90;;;;;;4857064;29;35995;-81
2022/07/23 10:09:36;;;;;;;6.15;1.48;;;23.60;99.90;;;;;;4858198;29;38692;-82
2022/07/23 10:12:09;;;;;;;2.47;1.10;;;24.00;99.90;;;;;;4855982;29;38809;-82
2022/07/23 10:14:38;;;;;;;4.00;1.20;;;24.30;99.90;;;;;;4858428;29;38840;-81
2022/07/23 10:17:04;;;;;;;2.90;1.20;;;24.40;99.90;;;;;;4858138;29;37584;-82
2022/07/23 10:19:31;;;;;;;4.40;0.85;;;24.10;99.90;;;;;;4854082;29;39142;-82
2022/07/23 10:22:01;;;;;;;5.15;0.95;;;23.70;99.90;;;;;;4857640;29;37560;-85
2022/07/23 10:24:45;;;;;;;3.20;1.10;;;23.90;99.90;;;;;;4854911;29;47316;-82
2022/07/23 10:27:32;;;;;;;1.52;1.02;;;24.50;99.90;;;;;;4854523;29;37149;-82
2022/07/23 10:30:18;;;;;;;2.53;1.00;;;24.60;99.90;;;;;;4855839;29;37841;-83
2022/07/23 10:33:03;;;;;;;1.42;1.33;;;25.20;99.90;;;;;;4872923;29;48523;-82
2022/07/23 10:35:33;;;;;;;1.40;1.02;;;25.40;99.90;;;;;;4855445;29;47142;-83
2022/07/23 10:38:18;;;;;;;3.15;1.00;;;25.40;99.90;;;;;;4856093;29;36076;-82
2022/07/23 10:41:02;;;;;;;3.53;1.27;;;25.70;99.90;;;;;;4862800;29;48038;-82
2022/07/23 10:43:30;;;;;;;2.78;1.10;;;25.20;99.90;;;;;;4854702;29;47247;-82
2022/07/23 10:46:16;;;;;;;4.32;1.17;;;24.60;99.90;;;;;;4855417;29;38025;-82
2022/07/23 10:48:42;;;;;;;1.80;0.88;;;25.10;99.90;;;;;;4863867;29;48272;-82
2022/07/23 10:51:14;;;;;;;3.67;1.25;;;25.70;99.90;;;;;;4875117;29;37853;-82
2022/07/23 10:53:49;;;;;;;2.80;1.50;;;25.80;99.90;;;;;;4854494;29;39981;-82
2022/07/23 10:56:16;;;;;;;2.97;1.40;;;25.70;99.90;;;;;;4854756;29;37055;-82
2022/07/23 10:58:47;;;;;;;4.00;1.67;;;25.30;99.90;;;;;;4857271;29;36060;-81
2022/07/23 11:01:36;;;;;;;2.00;1.00;;;25.20;99.90;;;;;;4855000;29;38189;-82
2022/07/23 11:04:07;;;;;;;1.58;1.13;;;24.40;99.90;;;;;;4855545;29;39555;-82
2022/07/23 11:06:49;;;;;;;2.55;1.10;;;25.40;99.90;;;;;;4856567;29;37252;-82
2022/07/23 11:09:38;;;;;;;2.50;1.10;;;25.60;99.90;;;;;;4855002;29;35817;-82
2022/07/23 11:12:13;;;;;;;2.08;1.10;;;26.20;99.90;;;;;;4855529;29;38577;-82
2022/07/23 11:14:57;;;;;;;2.35;1.40;;;26.70;99.90;;;;;;4855072;29;38019;-83
2022/07/23 11:17:25;;;;;;;1.50;0.95;;;26.50;99.90;;;;;;4856060;29;37128;-82
2022/07/23 11:20:09;;;;;;;4.22;1.00;;;26.80;99.90;;;;;;4854492;29;36591;-82
2022/07/23 11:22:36;;;;;;;1.35;0.80;;;26.10;99.90;;;;;;4865590;29;48771;-82
2022/07/23 11:25:03;;;;;;;3.47;1.10;;;26.20;99.90;;;;;;4859843;29;38611;-82
2022/07/23 11:27:43;;;;;;;1.88;0.80;;;26.20;99.90;;;;;;4858151;29;37002;-82
2022/07/23 11:30:30;;;;;;;2.85;0.80;;;26.60;99.90;;;;;;4846526;29;37414;-82
2022/07/23 11:33:08;;;;;;;1.55;0.90;;;26.90;99.90;;;;;;4855920;29;38956;-83
2022/07/23 11:35:37;;;;;;;2.00;1.05;;;27.30;99.90;;;;;;4873005;29;48475;-82
2022/07/23 11:38:15;;;;;;;2.95;0.80;;;26.60;99.90;;;;;;4855901;29;37220;-82
2022/07/23 11:40:44;;;;;;;1.65;1.02;;;26.50;99.90;;;;;;4858362;29;37185;-83
2022/07/23 11:43:11;;;;;;;2.75;0.90;;;26.10;99.90;;;;;;4857531;29;38060;-82
2022/07/23 11:45:39;;;;;;;1.73;1.02;;;25.80;99.90;;;;;;4859159;29;37466;-83
2022/07/23 11:48:08;;;;;;;0.82;0.82;;;25.80;99.90;;;;;;4858556;29;37937;-83
2022/07/23 11:50:35;;;;;;;1.60;0.98;;;26.00;99.90;;;;;;4858587;29;36161;-83
2022/07/23 11:53:02;;;;;;;2.80;1.10;;;26.60;99.90;;;;;;4859860;29;39007;-83
2022/07/23 11:55:28;;;;;;;1.33;1.02;;;26.80;99.90;;;;;;4871054;29;47095;-83
2022/07/23 11:57:55;;;;;;;3.60;1.27;;;27.10;99.90;;;;;;4856693;29;36995;-82
2022/07/23 12:00:24;;;;;;;2.13;0.82;;;27.60;99.90;;;;;;4872420;29;37020;-83
2022/07/23 12:02:53;;;;;;;1.48;1.00;;;27.10;99.90;;;;;;4857729;29;38149;-82
2022/07/23 12:05:22;;;;;;;1.52;1.08;;;27.60;99.90;;;;;;4854967;29;37608;-83
2022/07/23 12:07:50;;;;;;;2.60;0.80;;;27.20;99.90;;;;;;4858776;29;38126;-82
2022/07/23 12:10:20;;;;;;;2.58;1.40;;;27.10;99.90;;;;;;4874348;29;37427;-82
2022/07/23 12:12:55;;;;;;;1.35;0.90;;;26.80;99.90;;;;;;4872317;29;38836;-82
2022/07/23 12:15:24;;;;;;;0.98;0.90;;;26.50;99.90;;;;;;4857270;29;37987;-82
2022/07/23 12:17:53;;;;;;;4.78;1.30;;;26.90;99.90;;;;;;4860761;29;37004;-82
2022/07/23 12:20:23;;;;;;;6.28;1.30;;;27.40;99.90;;;;;;4857439;29;38123;-82
2022/07/23 12:22:51;;;;;;;3.05;1.20;;;27.60;99.90;;;;;;4856863;29;39154;-83
2022/07/23 12:25:20;;;;;;;1.85;1.00;;;27.60;99.90;;;;;;4855122;29;38050;-83
2022/07/23 12:28:00;;;;;;;1.48;0.90;;;27.90;99.90;;;;;;4874688;29;38992;-82
2022/07/23 12:30:30;;;;;;;2.83;1.20;;;28.10;99.90;;;;;;4857869;29;36138;-83
2022/07/23 12:32:57;;;;;;;3.03;1.05;;;28.30;99.90;;;;;;4855913;29;37508;-83
2022/07/23 12:35:37;;;;;;;1.23;1.00;;;28.30;99.90;;;;;;4858065;29;37291;-83
2022/07/23 12:38:08;;;;;;;1.30;1.00;;;27.90;99.90;;;;;;4854746;29;37022;-82
2022/07/23 12:40:41;;;;;;;3.10;1.00;;;27.20;99.90;;;;;;4857515;29;36443;-83
2022/07/23 12:43:10;;;;;;;0.95;0.93;;;26.40;99.90;;;;;;4874763;29;39331;-82
2022/07/23 12:45:51;;;;;;;2.47;0.80;;;26.40;99.90;;;;;;4874709;29;38125;-83
2022/07/23 12:48:21;;;;;;;1.13;0.88;;;26.70;99.90;;;;;;4853400;29;36968;-82
2022/07/23 12:51:00;;;;;;;1.58;0.85;;;26.90;99.90;;;;;;4858760;29;36038;-82
2022/07/23 12:53:39;;;;;;;1.75;0.70;;;26.60;99.90;;;;;;4856766;29;38540;-83